LRI4LW YMHB-YMLT
Flight info
| Callsign | LRI4LW |
|---|---|
| Flight time | 0h 21m |
| Altitude | 14000 |
| Route | LATUM H111 LT |
| Aircraft | B350/L-SBGRW/S |
Departure
| Time | 2026-04-21 19:16 |
|---|---|
| Airport | Hobart International Airport (YMHB) |
Arrival
| Time | 2026-04-21 19:37 |
|---|---|
| Airport | Launceston Airport (YMLT) |
| Time | Latitude | Longitude | Altitude | Speed | Heading |
|---|---|---|---|---|---|
| 2026-04-21 19:12 | -42.83929 | 147.50806 | 17 ft | 0 kts | 71° |
| 2026-04-21 19:13 | -42.83925 | 147.50819 | 18 ft | 8 kts | 61° |
| 2026-04-21 19:13 | -42.83882 | 147.50897 | 19 ft | 12 kts | 82° |
| 2026-04-21 19:13 | -42.83925 | 147.50999 | 18 ft | 14 kts | 134° |
| 2026-04-21 19:13 | -42.83928 | 147.51107 | 19 ft | 12 kts | 45° |
| 2026-04-21 19:14 | -42.83877 | 147.51173 | 21 ft | 9 kts | 43° |
| 2026-04-21 19:14 | -42.83837 | 147.51224 | 21 ft | 6 kts | 44° |
| 2026-04-21 19:14 | -42.83827 | 147.51236 | 23 ft | 0 kts | 44° |
| 2026-04-21 19:14 | -42.83822 | 147.51243 | 21 ft | 8 kts | 44° |
| 2026-04-21 19:15 | -42.83737 | 147.51316 | 20 ft | 17 kts | 349° |
| 2026-04-21 19:15 | -42.83530 | 147.51070 | 22 ft | 79 kts | 313° |
| 2026-04-21 19:15 | -42.82993 | 147.50332 | 133 ft | 129 kts | 317° |
| 2026-04-21 19:15 | -42.82276 | 147.49421 | 569 ft | 149 kts | 316° |
| 2026-04-21 19:16 | -42.81551 | 147.48391 | 1259 ft | 151 kts | 316° |
| 2026-04-21 19:16 | -42.80828 | 147.47396 | 2056 ft | 144 kts | 320° |
| 2026-04-21 19:16 | -42.79944 | 147.46914 | 2795 ft | 140 kts | 357° |
| 2026-04-21 19:16 | -42.78970 | 147.46895 | 3434 ft | 144 kts | 354° |
| 2026-04-21 19:17 | -42.76910 | 147.46671 | 4560 ft | 154 kts | 351° |
| 2026-04-21 19:17 | -42.75828 | 147.46514 | 5127 ft | 159 kts | 351° |
| 2026-04-21 19:17 | -42.74717 | 147.46345 | 5703 ft | 162 kts | 351° |
| 2026-04-21 19:18 | -42.73590 | 147.46173 | 6284 ft | 164 kts | 351° |
| 2026-04-21 19:18 | -42.72449 | 147.46000 | 6876 ft | 166 kts | 351° |
| 2026-04-21 19:18 | -42.71295 | 147.45823 | 7457 ft | 167 kts | 351° |
| 2026-04-21 19:18 | -42.70130 | 147.45644 | 7972 ft | 174 kts | 351° |
| 2026-04-21 19:19 | -42.68822 | 147.45442 | 8018 ft | 202 kts | 352° |
| 2026-04-21 19:19 | -42.67351 | 147.45220 | 8013 ft | 222 kts | 352° |
| 2026-04-21 19:19 | -42.65766 | 147.44981 | 8026 ft | 235 kts | 352° |
| 2026-04-21 19:19 | -42.64127 | 147.44731 | 8022 ft | 244 kts | 352° |
| 2026-04-21 19:20 | -42.62415 | 147.44472 | 8021 ft | 250 kts | 352° |
| 2026-04-21 19:20 | -42.60669 | 147.44205 | 8025 ft | 254 kts | 352° |
| 2026-04-21 19:20 | -42.58898 | 147.43934 | 8021 ft | 256 kts | 352° |
| 2026-04-21 19:20 | -42.57119 | 147.43671 | 8022 ft | 258 kts | 353° |
| 2026-04-21 19:21 | -42.55326 | 147.43424 | 8033 ft | 259 kts | 352° |
| 2026-04-21 19:21 | -42.53529 | 147.43164 | 8027 ft | 260 kts | 352° |
| 2026-04-21 19:21 | -42.51729 | 147.42903 | 8032 ft | 260 kts | 352° |
| 2026-04-21 19:21 | -42.49948 | 147.42647 | 8033 ft | 260 kts | 352° |
| 2026-04-21 19:22 | -42.48147 | 147.42386 | 8040 ft | 260 kts | 352° |
| 2026-04-21 19:22 | -42.46347 | 147.42132 | 8033 ft | 261 kts | 352° |
| 2026-04-21 19:22 | -42.44539 | 147.41870 | 8034 ft | 261 kts | 352° |
| 2026-04-21 19:22 | -42.42727 | 147.41605 | 8037 ft | 261 kts | 352° |
| 2026-04-21 19:23 | -42.40918 | 147.41347 | 8039 ft | 261 kts | 352° |
| 2026-04-21 19:23 | -42.39103 | 147.41089 | 8036 ft | 262 kts | 352° |
| 2026-04-21 19:23 | -42.37294 | 147.40828 | 8039 ft | 262 kts | 352° |
| 2026-04-21 19:23 | -42.35505 | 147.40570 | 8041 ft | 262 kts | 352° |
| 2026-04-21 19:24 | -42.33690 | 147.40311 | 8037 ft | 262 kts | 352° |
| 2026-04-21 19:24 | -42.31876 | 147.40050 | 8049 ft | 262 kts | 352° |
| 2026-04-21 19:24 | -42.30061 | 147.39790 | 8048 ft | 262 kts | 352° |
| 2026-04-21 19:24 | -42.28244 | 147.39531 | 8041 ft | 262 kts | 352° |
| 2026-04-21 19:25 | -42.26429 | 147.39270 | 8043 ft | 262 kts | 352° |
| 2026-04-21 19:25 | -42.24608 | 147.39011 | 8042 ft | 262 kts | 352° |
| 2026-04-21 19:25 | -42.22797 | 147.38751 | 8049 ft | 262 kts | 352° |
| 2026-04-21 19:25 | -42.20982 | 147.38491 | 8048 ft | 262 kts | 352° |
| 2026-04-21 19:26 | -42.19168 | 147.38232 | 8050 ft | 262 kts | 352° |
| 2026-04-21 19:26 | -42.17355 | 147.37975 | 8043 ft | 262 kts | 352° |
| 2026-04-21 19:26 | -42.15546 | 147.37717 | 8049 ft | 261 kts | 352° |
| 2026-04-21 19:26 | -42.13757 | 147.37462 | 8049 ft | 261 kts | 352° |
| 2026-04-21 19:27 | -42.11946 | 147.37206 | 8049 ft | 261 kts | 351° |
| 2026-04-21 19:27 | -42.10138 | 147.36945 | 8060 ft | 261 kts | 351° |
| 2026-04-21 19:27 | -42.08331 | 147.36690 | 8059 ft | 261 kts | 351° |
| 2026-04-21 19:27 | -42.06523 | 147.36445 | 8053 ft | 261 kts | 352° |
| 2026-04-21 19:28 | -42.04717 | 147.36205 | 8052 ft | 261 kts | 352° |
| 2026-04-21 19:28 | -42.02916 | 147.35922 | 8058 ft | 261 kts | 351° |
| 2026-04-21 19:28 | -42.01113 | 147.35655 | 8058 ft | 261 kts | 352° |
| 2026-04-21 19:28 | -41.99303 | 147.35407 | 8064 ft | 261 kts | 352° |
| 2026-04-21 19:29 | -41.97495 | 147.35154 | 8064 ft | 261 kts | 352° |
| 2026-04-21 19:29 | -41.95685 | 147.34896 | 8056 ft | 261 kts | 352° |
| 2026-04-21 19:29 | -41.93874 | 147.34635 | 8055 ft | 262 kts | 351° |
| 2026-04-21 19:29 | -41.92054 | 147.34380 | 7711 ft | 265 kts | 352° |
| 2026-04-21 19:30 | -41.90206 | 147.34123 | 7094 ft | 269 kts | 351° |
| 2026-04-21 19:30 | -41.88344 | 147.33858 | 6511 ft | 269 kts | 351° |
| 2026-04-21 19:30 | -41.86488 | 147.33594 | 5916 ft | 267 kts | 351° |
| 2026-04-21 19:30 | -41.84698 | 147.33345 | 5340 ft | 258 kts | 352° |
| 2026-04-21 19:31 | -41.82917 | 147.33093 | 4746 ft | 251 kts | 352° |
| 2026-04-21 19:31 | -41.81222 | 147.32851 | 4175 ft | 246 kts | 353° |
| 2026-04-21 19:31 | -41.79526 | 147.32609 | 3617 ft | 243 kts | 353° |
| 2026-04-21 19:31 | -41.77848 | 147.32377 | 3097 ft | 241 kts | 353° |
| 2026-04-21 19:32 | -41.76248 | 147.32140 | 3061 ft | 222 kts | 352° |
| 2026-04-21 19:32 | -41.74767 | 147.31878 | 3045 ft | 209 kts | 352° |
| 2026-04-21 19:32 | -41.73366 | 147.31624 | 3050 ft | 199 kts | 352° |
| 2026-04-21 19:32 | -41.72021 | 147.31381 | 3054 ft | 189 kts | 352° |
| 2026-04-21 19:33 | -41.71173 | 147.31226 | 3047 ft | 183 kts | 352° |
| 2026-04-21 19:33 | -41.69520 | 147.30923 | 3057 ft | 178 kts | 352° |
| 2026-04-21 19:33 | -41.68283 | 147.30690 | 3060 ft | 181 kts | 352° |
| 2026-04-21 19:33 | -41.67034 | 147.30455 | 3064 ft | 182 kts | 352° |
| 2026-04-21 19:34 | -41.65777 | 147.30184 | 3011 ft | 185 kts | 347° |
| 2026-04-21 19:34 | -41.64579 | 147.29633 | 2799 ft | 182 kts | 333° |
| 2026-04-21 19:34 | -41.63516 | 147.28801 | 2551 ft | 167 kts | 329° |
| 2026-04-21 19:34 | -41.62594 | 147.28038 | 2333 ft | 147 kts | 328° |
| 2026-04-21 19:35 | -41.61766 | 147.27317 | 2134 ft | 139 kts | 327° |
| 2026-04-21 19:35 | -41.60183 | 147.25955 | 1763 ft | 133 kts | 328° |
| 2026-04-21 19:35 | -41.59397 | 147.25289 | 1572 ft | 137 kts | 327° |
| 2026-04-21 19:36 | -41.58592 | 147.24597 | 1378 ft | 131 kts | 328° |
| 2026-04-21 19:36 | -41.57870 | 147.23978 | 1202 ft | 117 kts | 328° |
| 2026-04-21 19:36 | -41.57193 | 147.23395 | 1046 ft | 115 kts | 328° |
| 2026-04-21 19:36 | -41.56519 | 147.22815 | 895 ft | 118 kts | 328° |
| 2026-04-21 19:37 | -41.55823 | 147.22218 | 737 ft | 116 kts | 328° |
| 2026-04-21 19:37 | -41.55151 | 147.21644 | 587 ft | 112 kts | 327° |
| 2026-04-21 19:37 | -41.54570 | 147.21155 | 564 ft | 82 kts | 327° |
| 2026-04-21 19:37 | -41.54300 | 147.20918 | 562 ft | 15 kts | 291° |
| 2026-04-21 19:38 | -41.54296 | 147.20838 | 561 ft | 9 kts | 242° |
| 2026-04-21 19:38 | -41.54321 | 147.20787 | 562 ft | 6 kts | 230° |
| 2026-04-21 19:38 | -41.54347 | 147.20761 | 563 ft | 8 kts | 209° |
| 2026-04-21 19:38 | -41.54375 | 147.20719 | 561 ft | 4 kts | 239° |
| 2026-04-21 19:39 | -41.54376 | 147.20718 | 561 ft | 0 kts | 239° |